createdAt,value
2018-03-08T00:01:57.385Z,2.20
2018-03-08T00:04:24.915Z,2.72
2018-03-08T00:06:52.401Z,2.30
2018-03-08T00:09:19.930Z,2.40
2018-03-08T00:11:47.428Z,2.45
2018-03-08T00:14:14.939Z,2.50
2018-03-08T00:16:42.437Z,2.20
2018-03-08T00:19:09.935Z,2.15
2018-03-08T00:21:37.447Z,2.42
2018-03-08T00:24:04.932Z,2.30
2018-03-08T00:26:32.458Z,2.00
2018-03-08T00:28:59.952Z,2.05
2018-03-08T00:31:28.251Z,2.35
2018-03-08T00:33:55.741Z,2.40
2018-03-08T00:36:23.235Z,2.22
2018-03-08T00:38:50.787Z,2.55
2018-03-08T00:41:18.290Z,2.40
2018-03-08T00:43:45.817Z,2.80
2018-03-08T00:46:13.312Z,2.78
2018-03-08T00:48:41.792Z,2.65
2018-03-08T00:51:10.048Z,2.50
2018-03-08T00:53:38.308Z,2.65
2018-03-08T00:56:05.829Z,2.72
2018-03-08T00:58:33.328Z,2.70
2018-03-08T01:01:02.765Z,2.25
2018-03-08T01:03:30.265Z,2.53
2018-03-08T01:05:57.753Z,3.20
2018-03-08T01:08:25.300Z,2.47
2018-03-08T01:10:52.795Z,2.60
2018-03-08T01:13:20.303Z,2.60
2018-03-08T01:15:47.840Z,2.25
2018-03-08T01:18:16.083Z,2.30
2018-03-08T01:20:44.353Z,2.60
2018-03-08T01:23:12.608Z,2.30
2018-03-08T01:25:40.117Z,2.58
2018-03-08T01:28:07.614Z,2.28
2018-03-08T01:30:35.128Z,3.12
2018-03-08T01:33:03.393Z,2.70
2018-03-08T01:35:31.680Z,2.60
2018-03-08T01:37:59.203Z,2.37
2018-03-08T01:40:26.699Z,2.58
2018-03-08T01:42:54.229Z,2.78
2018-03-08T01:45:21.727Z,2.75
2018-03-08T01:47:49.235Z,2.83
2018-03-08T01:50:16.733Z,2.50
2018-03-08T01:52:45.014Z,2.80
2018-03-08T01:55:12.503Z,3.00
2018-03-08T01:57:39.992Z,2.58
2018-03-08T02:00:07.498Z,3.00
2018-03-08T02:02:35.002Z,2.67
2018-03-08T02:05:02.544Z,3.05
2018-03-08T02:07:30.049Z,3.00
2018-03-08T02:09:58.320Z,2.70
2018-03-08T02:12:25.803Z,3.30
2018-03-08T02:14:53.317Z,3.00
2018-03-08T02:17:20.830Z,3.00
2018-03-08T02:19:48.341Z,2.95
2018-03-08T02:22:15.869Z,3.40
2018-03-08T02:24:43.381Z,2.58
2018-03-08T02:27:10.889Z,2.22
2018-03-08T02:29:38.384Z,3.05
2018-03-08T02:32:05.883Z,2.45
2018-03-08T02:34:33.394Z,2.55
2018-03-08T02:37:00.908Z,2.35
2018-03-08T02:39:28.515Z,2.00
2018-03-08T02:41:56.008Z,2.85
2018-03-08T02:44:24.299Z,2.47
2018-03-08T02:46:51.817Z,2.00
2018-03-08T02:49:19.316Z,2.15
2018-03-08T02:51:47.592Z,2.25
2018-03-08T02:54:15.844Z,2.00
2018-03-08T02:56:43.385Z,2.03
2018-03-08T02:59:11.877Z,1.67
2018-03-08T03:01:39.389Z,1.92
2018-03-08T03:04:06.884Z,1.55
2018-03-08T03:06:34.374Z,2.22
2018-03-08T03:09:02.684Z,1.80
2018-03-08T03:11:30.185Z,1.75
2018-03-08T03:13:57.716Z,1.50
2018-03-08T03:16:25.222Z,1.80
2018-03-08T03:18:52.771Z,1.95
2018-03-08T03:21:20.262Z,1.80
2018-03-08T03:23:48.519Z,1.58
2018-03-08T03:26:16.037Z,1.65
2018-03-08T03:28:44.551Z,1.87
2018-03-08T03:31:12.070Z,1.87
2018-03-08T03:33:39.567Z,1.80
2018-03-08T03:36:07.076Z,1.92
2018-03-08T03:38:34.580Z,2.33
2018-03-08T03:41:02.106Z,1.92
2018-03-08T03:43:29.628Z,2.35
2018-03-08T03:45:57.895Z,2.50
2018-03-08T03:48:25.534Z,2.70
2018-03-08T03:50:53.037Z,2.80
2018-03-08T03:53:21.338Z,2.00
2018-03-08T03:55:48.835Z,2.97
2018-03-08T03:58:16.329Z,3.40
2018-03-08T04:00:44.614Z,2.67
2018-03-08T04:03:12.109Z,2.80
2018-03-08T04:05:39.635Z,2.62
2018-03-08T04:08:07.134Z,2.97
2018-03-08T04:10:34.661Z,2.78
2018-03-08T04:13:02.176Z,2.65
2018-03-08T04:15:29.665Z,3.00
2018-03-08T04:17:57.936Z,3.55
2018-03-08T04:20:26.195Z,2.90
2018-03-08T04:22:53.718Z,3.30
2018-03-08T04:25:21.211Z,2.60
2018-03-08T04:27:48.830Z,2.83
2018-03-08T04:30:16.320Z,3.25
2018-03-08T04:32:43.823Z,3.37
2018-03-08T04:35:12.097Z,2.65
2018-03-08T04:37:40.348Z,2.90
2018-03-08T04:40:07.864Z,2.50
2018-03-08T04:42:35.356Z,4.22
2018-03-08T04:45:02.879Z,3.37
2018-03-08T04:47:30.376Z,4.47
2018-03-08T04:49:57.857Z,3.75
2018-03-08T04:52:26.140Z,5.70
2018-03-08T04:54:54.388Z,3.90
2018-03-08T04:57:21.891Z,3.37
2018-03-08T04:59:50.141Z,3.42
2018-03-08T05:02:25.542Z,3.60
2018-03-08T05:04:53.028Z,5.12
2018-03-08T05:07:20.518Z,3.90
2018-03-08T05:09:48.792Z,3.33
2018-03-08T05:12:17.047Z,3.70
2018-03-08T05:14:44.551Z,4.00
2018-03-08T05:17:12.036Z,3.35
2018-03-08T05:19:39.546Z,3.20
2018-03-08T05:22:07.845Z,3.37
2018-03-08T05:24:35.350Z,3.25
2018-03-08T05:27:02.871Z,3.03
2018-03-08T05:29:30.971Z,3.12
2018-03-08T05:31:58.499Z,2.72
2018-03-08T05:34:26.047Z,3.00
2018-03-08T05:36:53.589Z,2.12
2018-03-08T05:39:21.066Z,2.92
2018-03-08T05:41:49.331Z,2.55
2018-03-08T05:44:17.599Z,2.78
2018-03-08T05:46:45.078Z,3.17
2018-03-08T05:49:13.364Z,3.05
2018-03-08T05:51:40.868Z,3.37
2018-03-08T05:54:08.376Z,2.90
2018-03-08T05:56:36.631Z,2.80
2018-03-08T05:59:04.135Z,3.40
2018-03-08T06:01:32.800Z,3.83
2018-03-08T06:04:01.065Z,3.30
2018-03-08T06:06:29.437Z,2.90
2018-03-08T06:08:56.966Z,3.17
2018-03-08T06:11:24.467Z,2.65
2018-03-08T06:13:52.723Z,3.37
2018-03-08T06:16:20.217Z,2.97
2018-03-08T06:18:47.724Z,3.90
2018-03-08T06:21:15.207Z,2.65
2018-03-08T06:23:42.710Z,3.37
2018-03-08T06:26:10.241Z,2.87
2018-03-08T06:28:37.701Z,2.60
2018-03-08T06:31:05.977Z,2.67
2018-03-08T06:33:34.231Z,2.53
2018-03-08T06:36:01.747Z,2.80
2018-03-08T06:38:29.243Z,2.60
2018-03-08T06:40:57.527Z,2.67
2018-03-08T06:43:25.009Z,2.20
2018-03-08T06:45:53.281Z,2.67
2018-03-08T06:48:21.562Z,2.75
2018-03-08T06:50:49.828Z,2.10
2018-03-08T06:53:18.107Z,2.67
2018-03-08T06:55:46.368Z,2.40
2018-03-08T06:58:13.869Z,2.50
2018-03-08T07:00:41.366Z,2.70
2018-03-08T07:03:08.860Z,2.50
2018-03-08T07:05:36.362Z,1.83
2018-03-08T07:08:03.865Z,2.25
2018-03-08T07:10:31.374Z,2.10
2018-03-08T07:12:58.871Z,2.28
2018-03-08T07:15:26.376Z,2.20
2018-03-08T07:17:53.890Z,2.35
2018-03-08T07:20:21.395Z,2.37
2018-03-08T07:22:49.091Z,1.90
2018-03-08T07:25:16.599Z,2.12
2018-03-08T07:27:44.110Z,2.08
2018-03-08T07:30:11.604Z,2.87
2018-03-08T07:32:39.112Z,2.33
2018-03-08T07:35:06.599Z,2.90
2018-03-08T07:37:34.095Z,2.35
2018-03-08T07:40:02.375Z,2.10
2018-03-08T07:42:30.634Z,1.98
2018-03-08T07:44:58.183Z,1.92
2018-03-08T07:47:25.656Z,2.37
2018-03-08T07:49:53.171Z,2.35
2018-03-08T07:52:20.686Z,2.67
2018-03-08T07:54:48.958Z,2.12
2018-03-08T07:57:16.476Z,2.55
2018-03-08T07:59:43.970Z,2.30
2018-03-08T08:02:11.522Z,2.03
2018-03-08T08:04:50.703Z,2.45
2018-03-08T08:07:30.084Z,2.60
2018-03-08T08:09:57.581Z,2.45
2018-03-08T08:12:25.867Z,2.28
2018-03-08T08:14:54.124Z,2.33
2018-03-08T08:17:21.628Z,2.45
2018-03-08T08:19:49.121Z,2.03
2018-03-08T08:22:16.613Z,2.28
2018-03-08T08:24:44.895Z,2.50
2018-03-08T08:27:13.152Z,2.25
2018-03-08T08:29:40.661Z,2.72
2018-03-08T08:32:08.157Z,2.53
2018-03-08T08:34:35.689Z,2.25
2018-03-08T08:37:03.185Z,2.30
2018-03-08T08:39:30.677Z,2.85
2018-03-08T08:41:58.196Z,2.65
2018-03-08T08:44:25.701Z,2.65
2018-03-08T08:46:53.212Z,2.45
2018-03-08T08:49:20.717Z,2.50
2018-03-08T08:51:48.236Z,3.28
2018-03-08T08:54:15.748Z,2.25
2018-03-08T08:56:43.243Z,2.80
2018-03-08T08:59:10.752Z,2.55
2018-03-08T09:01:38.244Z,2.87
2018-03-08T09:04:05.781Z,2.47
2018-03-08T09:06:33.301Z,2.72
2018-03-08T09:09:00.861Z,2.47
2018-03-08T09:11:28.353Z,2.40
2018-03-08T09:13:55.866Z,2.85
2018-03-08T09:16:23.386Z,2.75
2018-03-08T09:18:50.876Z,2.40
2018-03-08T09:21:18.381Z,2.87
2018-03-08T09:23:45.876Z,2.10
2018-03-08T09:26:13.394Z,2.00
2018-03-08T09:28:41.702Z,2.10
2018-03-08T09:31:09.197Z,1.65
2018-03-08T09:33:36.717Z,2.22
2018-03-08T09:36:04.215Z,3.15
2018-03-08T09:38:31.741Z,1.75
2018-03-08T09:40:59.238Z,2.33
2018-03-08T09:43:26.737Z,2.25
2018-03-08T09:45:54.276Z,2.10
2018-03-08T09:48:22.542Z,1.90
2018-03-08T09:50:50.043Z,2.20
2018-03-08T09:53:17.543Z,1.75
2018-03-08T09:55:45.060Z,1.67
2018-03-08T09:58:12.570Z,2.10
2018-03-08T10:00:40.084Z,2.03
2018-03-08T10:03:07.605Z,3.03
2018-03-08T10:05:35.108Z,2.03
2018-03-08T10:08:02.627Z,2.10
2018-03-08T10:10:30.884Z,2.15
2018-03-08T10:12:58.401Z,1.67
2018-03-08T10:15:25.900Z,2.30
2018-03-08T10:17:53.411Z,2.30
2018-03-08T10:20:20.936Z,1.87
2018-03-08T10:22:48.433Z,2.03
2018-03-08T10:25:15.956Z,1.95
2018-03-08T10:27:43.461Z,2.20
2018-03-08T10:30:10.986Z,1.95
2018-03-08T10:32:39.239Z,1.77
2018-03-08T10:35:06.750Z,1.83
2018-03-08T10:37:34.272Z,2.28
2018-03-08T10:40:02.540Z,2.03
2018-03-08T10:44:57.583Z,2.20
2018-03-08T10:47:25.852Z,2.50
2018-03-08T10:49:54.131Z,1.80
2018-03-08T10:52:22.394Z,1.65
2018-03-08T10:54:49.941Z,1.45
2018-03-08T10:57:17.444Z,1.75
2018-03-08T10:59:44.987Z,1.62
2018-03-08T11:02:17.189Z,1.83
2018-03-08T11:04:50.254Z,2.25
2018-03-08T11:07:18.514Z,1.65
2018-03-08T11:09:46.803Z,2.17
2018-03-08T11:12:15.065Z,2.28
2018-03-08T11:14:42.585Z,1.73
2018-03-08T11:17:10.090Z,1.98
2018-03-08T11:19:37.577Z,1.65
2018-03-08T11:22:05.111Z,1.80
2018-03-08T11:24:33.390Z,1.67
2018-03-08T11:27:01.684Z,1.58
2018-03-08T11:29:29.947Z,1.50
2018-03-08T11:31:57.483Z,1.73
2018-03-08T11:34:24.996Z,1.73
2018-03-08T11:36:52.504Z,2.10
2018-03-08T11:39:20.240Z,1.50
2018-03-08T11:41:47.749Z,2.92
2018-03-08T11:44:16.031Z,2.17
2018-03-08T11:46:44.303Z,1.35
2018-03-08T11:49:12.588Z,1.50
2018-03-08T11:51:40.848Z,1.35
2018-03-08T11:54:08.345Z,1.50
2018-03-08T11:56:35.864Z,1.40
2018-03-08T11:59:03.363Z,1.17
2018-03-08T12:01:30.884Z,1.30
2018-03-08T12:03:58.384Z,1.20
2018-03-08T12:06:25.906Z,2.90
2018-03-08T12:08:54.176Z,1.15
2018-03-08T12:11:21.674Z,1.20
2018-03-08T12:13:49.211Z,1.25
2018-03-08T12:16:17.498Z,1.70
2018-03-08T12:18:45.029Z,1.60
2018-03-08T12:21:12.529Z,1.60
2018-03-08T12:23:40.057Z,1.70
2018-03-08T12:26:08.691Z,1.35
2018-03-08T12:28:36.196Z,1.20
2018-03-08T12:31:03.750Z,1.10
2018-03-08T12:33:31.273Z,1.50
2018-03-08T12:35:58.807Z,0.93
2018-03-08T12:38:26.312Z,1.42
2018-03-08T12:40:53.847Z,1.10
2018-03-08T12:43:21.359Z,1.08
2018-03-08T12:45:49.850Z,1.20
2018-03-08T12:48:18.160Z,1.37
2018-03-08T12:50:46.446Z,1.00
2018-03-08T12:53:13.987Z,1.40
2018-03-08T12:55:41.500Z,1.30
2018-03-08T12:58:09.037Z,1.00
2018-03-08T13:00:36.564Z,1.80
2018-03-08T13:03:04.100Z,1.62
2018-03-08T13:05:32.422Z,1.00
2018-03-08T13:07:59.974Z,1.73
2018-03-08T13:10:27.491Z,1.60
2018-03-08T13:12:55.075Z,1.30
2018-03-08T13:15:22.635Z,1.55
2018-03-08T13:17:50.672Z,1.30
2018-03-08T13:20:18.806Z,1.20
2018-03-08T13:22:46.609Z,1.40
2018-03-08T13:25:14.124Z,1.30
2018-03-08T13:27:41.697Z,1.10
2018-03-08T13:30:09.927Z,1.23
2018-03-08T13:32:37.443Z,1.20
2018-03-08T13:35:04.960Z,1.40
2018-03-08T13:37:33.221Z,1.30
2018-03-08T13:40:00.742Z,1.10
2018-03-08T13:42:28.261Z,1.45
2018-03-08T13:44:55.788Z,1.33
2018-03-08T13:47:23.308Z,1.23
2018-03-08T13:49:50.845Z,0.95
2018-03-08T13:52:18.399Z,1.20
2018-03-08T13:54:46.693Z,1.05
2018-03-08T13:57:14.200Z,1.00
2018-03-08T13:59:42.097Z,1.15
2018-03-08T14:02:10.397Z,1.33
2018-03-08T14:04:37.912Z,1.10
2018-03-08T14:07:05.446Z,1.30
2018-03-08T14:09:32.952Z,1.70
2018-03-08T14:12:01.248Z,1.12
2018-03-08T14:14:28.772Z,1.23
2018-03-08T14:16:56.276Z,1.10
2018-03-08T14:19:23.810Z,1.62
2018-03-08T14:21:52.090Z,1.67
2018-03-08T14:24:20.376Z,1.27
2018-03-08T14:26:47.893Z,1.00
2018-03-08T14:29:15.429Z,1.50
2018-03-08T14:31:42.955Z,1.33
2018-03-08T14:34:10.450Z,1.67
2018-03-08T14:36:37.976Z,1.30
2018-03-08T14:39:05.531Z,1.27
2018-03-08T14:41:33.819Z,1.70
2018-03-08T14:44:01.325Z,2.03
2018-03-08T14:46:28.842Z,1.95
2018-03-08T14:48:56.362Z,1.40
2018-03-08T14:51:23.870Z,1.40
2018-03-08T14:53:51.390Z,1.12
2018-03-08T14:56:19.670Z,1.62
2018-03-08T14:58:47.957Z,1.70
2018-03-08T15:01:15.484Z,2.37
2018-03-08T15:03:43.022Z,1.40
2018-03-08T15:06:10.522Z,1.58
2018-03-08T15:08:39.613Z,2.00
2018-03-08T15:11:07.915Z,1.48
2018-03-08T15:13:35.441Z,1.15
2018-03-08T15:16:02.969Z,1.05
2018-03-08T15:18:30.482Z,0.90
2018-03-08T15:20:58.771Z,0.80
2018-03-08T15:23:26.308Z,1.42
2018-03-08T15:25:53.814Z,1.00
2018-03-08T15:28:21.335Z,0.90
2018-03-08T15:30:49.606Z,1.00
2018-03-08T15:33:17.884Z,1.00
2018-03-08T15:35:46.179Z,0.98
2018-03-08T15:38:14.496Z,0.70
2018-03-08T15:40:42.082Z,1.08
2018-03-08T15:43:09.608Z,0.90
2018-03-08T15:45:37.113Z,1.25
2018-03-08T15:48:04.614Z,0.98
2018-03-08T15:50:32.133Z,0.80
2018-03-08T15:52:59.644Z,1.40
2018-03-08T15:55:27.167Z,0.95
2018-03-08T15:57:55.448Z,0.93
2018-03-08T16:00:22.968Z,1.12
2018-03-08T16:02:50.488Z,1.20
2018-03-08T16:05:17.994Z,1.02
2018-03-08T16:10:50.329Z,1.10
2018-03-08T16:13:18.617Z,1.00
2018-03-08T16:15:46.953Z,1.10
2018-03-08T16:18:14.488Z,1.05
2018-03-08T16:20:41.999Z,1.30
2018-03-08T16:23:09.513Z,1.42
2018-03-08T16:25:37.044Z,1.00
2018-03-08T16:28:04.552Z,1.00
2018-03-08T16:30:32.840Z,1.10
2018-03-08T16:33:01.111Z,1.05
2018-03-08T16:35:30.014Z,1.65
2018-03-08T16:37:57.554Z,1.80
2018-03-08T16:40:25.068Z,2.00
2018-03-08T16:42:52.620Z,1.62
2018-03-08T16:45:20.156Z,1.70
2018-03-08T16:47:49.129Z,2.03
2018-03-08T16:50:16.646Z,1.80
2018-03-08T16:52:44.149Z,1.87
2018-03-08T16:55:11.673Z,2.08
2018-03-08T16:57:40.313Z,1.50
2018-03-08T17:00:07.911Z,2.05
2018-03-08T17:02:35.441Z,2.00
2018-03-08T17:05:03.042Z,2.25
2018-03-08T17:07:30.646Z,2.20
2018-03-08T17:09:58.158Z,1.75
2018-03-08T17:12:25.807Z,1.60
2018-03-08T17:14:53.308Z,2.30
2018-03-08T17:17:20.834Z,1.70
2018-03-08T17:19:48.365Z,1.70
2018-03-08T17:22:16.167Z,2.10
2018-03-08T17:24:43.672Z,2.35
2018-03-08T17:27:11.167Z,2.42
2018-03-08T17:29:38.694Z,2.00
2018-03-08T17:32:06.221Z,2.65
2018-03-08T17:34:33.744Z,1.92
2018-03-08T17:37:01.254Z,2.40
2018-03-08T17:39:29.802Z,1.35
2018-03-08T17:41:57.337Z,1.70
2018-03-08T17:44:24.866Z,2.03
2018-03-08T17:46:52.390Z,1.80
2018-03-08T17:49:19.938Z,1.75
2018-03-08T17:51:47.509Z,1.92
2018-03-08T17:54:15.059Z,1.73
2018-03-08T17:56:42.601Z,2.05
2018-03-08T17:59:10.119Z,1.83
2018-03-08T18:01:37.671Z,2.28
2018-03-08T18:04:05.209Z,2.05
2018-03-08T18:06:32.772Z,1.77
2018-03-08T18:09:00.324Z,1.92
2018-03-08T18:11:28.629Z,1.90
2018-03-08T18:13:56.229Z,6.65
2018-03-08T18:16:23.734Z,3.90
2018-03-08T18:18:51.291Z,7.07
2018-03-08T18:21:18.829Z,4.12
2018-03-08T18:23:46.357Z,2.90
2018-03-08T18:26:14.695Z,1.80
2018-03-08T18:28:42.226Z,2.47
2018-03-08T18:31:09.769Z,2.40
2018-03-08T18:33:37.284Z,2.25
2018-03-08T18:36:04.800Z,2.47
2018-03-08T18:38:32.329Z,1.90
2018-03-08T18:40:59.839Z,2.67
2018-03-08T18:43:27.430Z,2.65
2018-03-08T18:45:54.946Z,1.90
2018-03-08T18:48:22.538Z,2.37
2018-03-08T18:50:50.293Z,2.35
2018-03-08T18:53:17.798Z,2.30
2018-03-08T18:55:45.323Z,2.12
2018-03-08T18:58:24.821Z,2.12
2018-03-08T19:00:52.336Z,2.08
2018-03-08T19:03:20.587Z,1.98
2018-03-08T19:05:48.101Z,1.98
2018-03-08T19:08:15.630Z,1.98
2018-03-08T19:10:43.143Z,2.15
2018-03-08T19:13:10.689Z,1.95
2018-03-08T19:15:38.972Z,1.90
2018-03-08T19:18:06.488Z,1.67
2018-03-08T19:20:34.002Z,2.00
2018-03-08T19:23:01.512Z,1.80
2018-03-08T19:25:29.823Z,1.60
2018-03-08T19:27:57.395Z,1.87
2018-03-08T19:30:24.918Z,1.85
2018-03-08T19:32:52.417Z,1.48
2018-03-08T19:35:19.992Z,2.00
2018-03-08T19:37:47.519Z,2.40
2018-03-08T19:40:15.025Z,1.90
2018-03-08T19:42:43.343Z,2.05
2018-03-08T19:45:10.896Z,2.12
2018-03-08T19:47:38.414Z,2.03
2018-03-08T19:50:05.912Z,1.83
2018-03-08T19:52:34.189Z,1.85
2018-03-08T19:55:01.688Z,1.80
2018-03-08T19:57:29.942Z,2.08
2018-03-08T19:59:57.474Z,2.95
2018-03-08T20:02:24.971Z,2.42
2018-03-08T20:04:52.505Z,1.90
2018-03-08T20:07:20.005Z,2.08
2018-03-08T20:09:47.495Z,1.90
2018-03-08T20:12:15.012Z,1.92
2018-03-08T20:14:42.513Z,1.92
2018-03-08T20:17:10.873Z,1.80
2018-03-08T20:19:38.382Z,2.05
2018-03-08T20:22:05.908Z,2.00
2018-03-08T20:24:34.168Z,2.40
2018-03-08T20:27:02.440Z,1.90
2018-03-08T20:29:29.957Z,1.50
2018-03-08T20:31:57.465Z,1.60
2018-03-08T20:34:24.983Z,1.50
2018-03-08T20:36:53.245Z,1.98
2018-03-08T20:39:20.780Z,1.73
2018-03-08T20:41:48.338Z,1.52
2018-03-08T20:44:15.828Z,2.05
2018-03-08T20:46:43.355Z,1.60
2018-03-08T20:49:11.612Z,1.70
2018-03-08T20:51:39.162Z,1.40
2018-03-08T20:54:06.665Z,1.58
2018-03-08T20:56:34.156Z,1.60
2018-03-08T20:59:02.437Z,1.58
2018-03-08T21:01:29.937Z,1.30
2018-03-08T21:03:57.466Z,1.30
2018-03-08T21:06:24.956Z,1.30
2018-03-08T21:08:53.287Z,1.30
2018-03-08T21:11:20.794Z,1.40
2018-03-08T21:13:48.286Z,1.42
2018-03-08T21:16:16.575Z,1.70
2018-03-08T21:18:44.083Z,1.45
2018-03-08T21:21:11.609Z,1.30
2018-03-08T21:23:39.100Z,1.52
2018-03-08T21:26:06.624Z,1.40
2018-03-08T21:28:35.048Z,1.55
2018-03-08T21:31:03.307Z,1.23
2018-03-08T21:33:30.878Z,1.40
2018-03-08T21:35:58.330Z,1.83
2018-03-08T21:38:25.849Z,1.23
2018-03-08T21:40:54.104Z,0.88
2018-03-08T21:43:21.625Z,1.40
2018-03-08T21:45:49.126Z,1.83
2018-03-08T21:48:16.623Z,1.50
2018-03-08T21:50:44.137Z,1.35
2018-03-08T21:53:11.634Z,1.40
2018-03-08T21:55:39.152Z,1.75
2018-03-08T21:58:07.430Z,1.23
2018-03-08T22:00:35.724Z,1.48
2018-03-08T22:03:03.992Z,1.35
2018-03-08T22:05:31.489Z,1.40
2018-03-08T22:07:59.773Z,1.20
2018-03-08T22:10:28.046Z,1.52
2018-03-08T22:12:55.563Z,2.08
2018-03-08T22:15:23.069Z,1.35
2018-03-08T22:17:50.585Z,1.40
2018-03-08T22:20:18.069Z,1.55
2018-03-08T22:22:45.559Z,1.30
2018-03-08T22:25:13.082Z,1.42
2018-03-08T22:27:41.346Z,1.65
2018-03-08T22:30:08.859Z,1.48
2018-03-08T22:32:36.356Z,1.30
2018-03-08T22:35:03.882Z,1.42
2018-03-08T22:37:32.148Z,1.30
2018-03-08T22:39:59.658Z,1.62
2018-03-08T22:42:27.172Z,1.87
2018-03-08T22:44:54.676Z,1.77
2018-03-08T22:47:22.969Z,1.70
2018-03-08T22:49:51.243Z,2.12
2018-03-08T22:52:18.742Z,2.10
2018-03-08T22:54:46.264Z,1.90
2018-03-08T22:57:13.780Z,2.20
2018-03-08T22:59:41.301Z,3.00
2018-03-08T23:02:10.819Z,2.83
2018-03-08T23:04:38.314Z,3.20
2018-03-08T23:07:05.824Z,3.10
2018-03-08T23:09:33.323Z,3.17
2018-03-08T23:12:00.844Z,4.00
2018-03-08T23:14:28.340Z,4.55
2018-03-08T23:16:55.835Z,4.85
2018-03-08T23:19:23.352Z,4.80
2018-03-08T23:21:51.613Z,5.40
2018-03-08T23:24:19.135Z,6.00
2018-03-08T23:26:46.623Z,6.00
2018-03-08T23:29:14.876Z,6.55
2018-03-08T23:31:42.387Z,7.05
2018-03-08T23:34:09.888Z,7.18
2018-03-08T23:36:37.417Z,7.55
2018-03-08T23:39:04.918Z,7.12
2018-03-08T23:41:32.450Z,7.72
2018-03-08T23:43:59.948Z,7.80
2018-03-08T23:46:27.452Z,7.50
2018-03-08T23:48:55.826Z,7.57
2018-03-08T23:51:23.362Z,8.48
2018-03-08T23:53:50.898Z,6.97
2018-03-08T23:56:19.222Z,7.45
2018-03-08T23:58:46.746Z,7.93
